Time;durP1;ratioP1;P1;durP2;ratioP2;P2;SDS_P1;SDS_P2;PMS_P1;PMS_P2;Temp;Humidity;BMP_temperature;BMP_pressure;BME280_temperature;BME280_humidity;BME280_pressure;Samples;Min_cycle;Max_cycle;Signal;HPM_P1;HPM_P2
2022/03/19 00:02:21;;;;;;;13.70;5.82;;;10.60;99.90;;;;;;5016110;28;20049;-65
2022/03/19 00:04:49;;;;;;;9.30;4.68;;;10.60;99.90;;;;;;5031667;28;20095;-65
2022/03/19 00:07:17;;;;;;;10.23;4.75;;;10.60;99.90;;;;;;5040603;28;20518;-65
2022/03/19 00:09:45;;;;;;;7.85;4.68;;;10.50;99.90;;;;;;5034169;28;20041;-65
2022/03/19 00:12:14;;;;;;;11.32;4.80;;;10.50;99.90;;;;;;4991445;28;20054;-65
2022/03/19 00:14:42;;;;;;;10.00;4.85;;;10.50;99.90;;;;;;5033921;28;20068;-65
2022/03/19 00:17:10;;;;;;;9.32;4.93;;;10.40;99.90;;;;;;5011104;28;20033;-65
2022/03/19 00:19:38;;;;;;;10.80;5.03;;;10.40;99.90;;;;;;5000171;28;20072;-65
2022/03/19 00:22:07;;;;;;;7.45;5.40;;;10.30;99.90;;;;;;5003890;28;20052;-64
2022/03/19 00:24:37;;;;;;;6.88;4.22;;;10.30;99.90;;;;;;5033948;28;20041;-65
2022/03/19 00:27:05;;;;;;;6.22;3.92;;;10.30;99.90;;;;;;5021915;28;20041;-65
2022/03/19 00:29:32;;;;;;;8.32;4.10;;;10.30;99.90;;;;;;5003430;28;20045;-64
2022/03/19 00:32:02;;;;;;;11.13;4.40;;;10.30;99.90;;;;;;5012007;28;20404;-64
2022/03/19 00:34:32;;;;;;;11.30;4.57;;;10.30;99.90;;;;;;5020825;28;20103;-64
2022/03/19 00:36:59;;;;;;;9.93;4.10;;;10.30;99.90;;;;;;4992849;28;20042;-65
2022/03/19 00:39:27;;;;;;;6.20;4.05;;;10.20;99.90;;;;;;5027014;28;20046;-64
2022/03/19 00:41:54;;;;;;;8.82;4.38;;;10.30;99.90;;;;;;5011012;28;20530;-66
2022/03/19 00:44:22;;;;;;;9.18;3.83;;;10.30;99.90;;;;;;5033692;28;20045;-65
2022/03/19 00:46:50;;;;;;;6.82;3.65;;;10.30;99.90;;;;;;5021088;28;20045;-65
2022/03/19 00:49:18;;;;;;;10.52;4.68;;;10.20;99.90;;;;;;5044976;28;20249;-65
2022/03/19 00:51:45;;;;;;;9.65;4.38;;;10.20;99.90;;;;;;4991431;28;20392;-65
2022/03/19 00:54:15;;;;;;;9.57;3.42;;;10.30;99.90;;;;;;4996309;28;20510;-65
2022/03/19 00:56:42;;;;;;;9.00;4.00;;;10.30;99.90;;;;;;5008048;28;20046;-64
2022/03/19 00:59:11;;;;;;;7.82;3.75;;;10.30;99.90;;;;;;5021333;28;20045;-65
2022/03/19 01:01:38;;;;;;;8.18;3.83;;;10.20;99.90;;;;;;5038936;28;20064;-65
2022/03/19 01:04:06;;;;;;;7.55;3.55;;;10.20;99.90;;;;;;5033377;28;20037;-65
2022/03/19 01:06:34;;;;;;;7.53;4.28;;;10.30;99.90;;;;;;5026531;28;20092;-65
2022/03/19 01:09:01;;;;;;;4.57;2.92;;;10.40;99.90;;;;;;5011626;28;20045;-65
2022/03/19 01:11:29;;;;;;;7.60;3.38;;;10.50;99.90;;;;;;5013912;28;20137;-65
2022/03/19 01:13:57;;;;;;;8.05;4.15;;;10.50;99.90;;;;;;5012314;28;20530;-65
2022/03/19 01:16:28;;;;;;;7.75;3.83;;;10.60;99.90;;;;;;4993531;28;20073;-65
2022/03/19 01:18:55;;;;;;;8.32;4.47;;;10.60;99.90;;;;;;5015085;28;20088;-65
2022/03/19 01:21:23;;;;;;;6.20;3.53;;;10.60;99.90;;;;;;5032641;28;20040;-65
2022/03/19 01:23:50;;;;;;;7.32;4.13;;;10.70;99.90;;;;;;5043329;28;20041;-65
2022/03/19 01:26:20;;;;;;;6.55;3.83;;;10.60;99.90;;;;;;5006873;28;20038;-65
2022/03/19 01:28:48;;;;;;;10.25;4.18;;;10.70;99.90;;;;;;4991590;28;20049;-65
2022/03/19 01:31:15;;;;;;;10.70;3.97;;;10.50;99.90;;;;;;5014270;28;20057;-65
2022/03/19 01:33:43;;;;;;;13.73;3.60;;;10.50;99.90;;;;;;5026642;28;20490;-65
2022/03/19 01:36:11;;;;;;;15.80;4.50;;;10.50;99.90;;;;;;5014380;28;20041;-65
2022/03/19 01:38:39;;;;;;;7.15;3.80;;;10.50;99.90;;;;;;5032228;28;20053;-66
2022/03/19 01:41:06;;;;;;;10.10;3.47;;;10.50;99.90;;;;;;5030216;28;20041;-65
2022/03/19 01:43:37;;;;;;;7.93;3.95;;;10.40;99.90;;;;;;5003478;28;20044;-65
2022/03/19 01:46:08;;;;;;;7.10;4.22;;;10.30;99.90;;;;;;5019199;28;20467;-65
2022/03/19 01:48:35;;;;;;;5.75;3.75;;;10.30;99.90;;;;;;5032053;28;20409;-65
2022/03/19 01:51:03;;;;;;;7.50;3.28;;;10.40;99.90;;;;;;5011945;28;20041;-65
2022/03/19 01:53:30;;;;;;;5.95;3.53;;;10.40;99.90;;;;;;5024623;28;20052;-66
2022/03/19 01:55:59;;;;;;;6.32;3.30;;;10.40;99.90;;;;;;5008231;28;20037;-65
2022/03/19 01:58:26;;;;;;;7.95;3.55;;;10.50;99.90;;;;;;5026664;28;20488;-66
2022/03/19 02:00:55;;;;;;;7.60;3.72;;;10.50;99.90;;;;;;4996543;28;20519;-66
2022/03/19 02:03:23;;;;;;;8.60;3.15;;;10.60;99.90;;;;;;5029336;28;20037;-65
2022/03/19 02:05:51;;;;;;;5.60;3.78;;;10.60;99.90;;;;;;5024986;28;20426;-65
2022/03/19 02:08:19;;;;;;;8.68;3.70;;;10.60;99.90;;;;;;5032180;28;20132;-65
2022/03/19 02:10:46;;;;;;;7.65;3.67;;;10.60;99.90;;;;;;5031954;28;20132;-65
2022/03/19 02:13:14;;;;;;;8.70;4.40;;;10.60;99.90;;;;;;4999390;28;20067;-65
2022/03/19 02:15:41;;;;;;;7.10;3.78;;;10.50;99.90;;;;;;5016047;28;20060;-64
2022/03/19 02:18:09;;;;;;;8.45;4.45;;;10.50;99.90;;;;;;4999232;28;20488;-64
2022/03/19 02:20:37;;;;;;;9.23;3.78;;;10.40;99.90;;;;;;4999652;28;20037;-64
2022/03/19 02:25:50;;;;;;;7.65;3.42;;;10.40;99.90;;;;;;5016124;28;20053;-64
2022/03/19 02:28:17;;;;;;;7.85;4.20;;;10.30;99.90;;;;;;5016042;28;20042;-64
2022/03/19 02:30:45;;;;;;;5.82;3.50;;;10.20;99.90;;;;;;5033236;28;20056;-64
2022/03/19 02:33:13;;;;;;;9.80;3.67;;;10.20;99.90;;;;;;5016173;28;20518;-64
2022/03/19 02:35:40;;;;;;;6.93;3.55;;;10.20;99.90;;;;;;5013972;28;20045;-64
2022/03/19 02:38:09;;;;;;;5.53;3.25;;;10.30;99.90;;;;;;5015531;28;20069;-64
2022/03/19 02:40:37;;;;;;;8.38;3.92;;;10.10;99.90;;;;;;4999296;28;20060;-64
2022/03/19 02:43:04;;;;;;;7.45;3.40;;;10.10;99.90;;;;;;5033546;28;20060;-64
2022/03/19 02:45:32;;;;;;;9.23;3.75;;;10.10;99.90;;;;;;5015630;28;20402;-65
2022/03/19 02:47:59;;;;;;;7.80;3.97;;;10.10;99.90;;;;;;4999340;28;20487;-65
2022/03/19 02:50:28;;;;;;;5.47;2.88;;;10.00;99.90;;;;;;5015353;28;20041;-65
2022/03/19 02:52:57;;;;;;;6.10;3.88;;;10.00;99.90;;;;;;5033194;28;20037;-65
2022/03/19 02:55:25;;;;;;;8.05;2.90;;;10.00;99.90;;;;;;5015605;28;20041;-65
2022/03/19 02:57:53;;;;;;;6.38;2.90;;;10.00;99.90;;;;;;5015532;28;20045;-64
2022/03/19 03:00:22;;;;;;;9.00;3.25;;;10.10;99.90;;;;;;5016133;28;20060;-64
2022/03/19 03:02:49;;;;;;;5.97;3.08;;;10.00;99.90;;;;;;5036725;28;20046;-65
2022/03/19 03:05:17;;;;;;;4.80;2.78;;;10.00;99.90;;;;;;5036652;28;20480;-65
2022/03/19 03:07:44;;;;;;;6.90;3.15;;;10.00;99.90;;;;;;5018961;28;20069;-64
2022/03/19 03:10:16;;;;;;;7.53;3.00;;;10.10;99.90;;;;;;5019164;28;20095;-64
2022/03/19 03:12:43;;;;;;;5.10;3.20;;;10.00;99.90;;;;;;5002943;28;20103;-64
2022/03/19 03:15:11;;;;;;;10.45;3.58;;;10.00;99.90;;;;;;5019087;28;20053;-64
2022/03/19 03:17:40;;;;;;;8.13;3.92;;;10.00;99.90;;;;;;5018363;28;20050;-64
2022/03/19 03:20:08;;;;;;;7.78;3.08;;;10.10;99.90;;;;;;5036444;28;20073;-64
2022/03/19 03:22:37;;;;;;;8.05;4.20;;;10.10;99.90;;;;;;5036369;28;20547;-64
2022/03/19 03:25:06;;;;;;;7.25;4.03;;;10.10;99.90;;;;;;5018700;28;20042;-64
2022/03/19 03:27:34;;;;;;;12.25;4.13;;;10.00;99.90;;;;;;5018927;28;20483;-64
2022/03/19 03:30:02;;;;;;;8.82;4.20;;;10.00;99.90;;;;;;5036144;28;20049;-64
2022/03/19 03:32:29;;;;;;;7.40;4.70;;;9.90;99.90;;;;;;5001994;28;20046;-64
2022/03/19 03:34:58;;;;;;;8.15;3.72;;;9.90;99.90;;;;;;5019039;28;20049;-64
2022/03/19 03:37:26;;;;;;;6.88;3.63;;;9.80;99.90;;;;;;5018793;28;20057;-64
2022/03/19 03:39:53;;;;;;;10.15;3.25;;;9.80;99.90;;;;;;5018402;28;20037;-64
2022/03/19 03:42:21;;;;;;;7.20;3.72;;;9.70;99.90;;;;;;5002086;28;20041;-64
2022/03/19 03:44:48;;;;;;;10.80;4.72;;;9.60;99.90;;;;;;5002102;28;20115;-65
2022/03/19 03:47:16;;;;;;;5.82;3.33;;;9.60;99.90;;;;;;5018428;28;20391;-64
2022/03/19 03:49:43;;;;;;;6.20;3.67;;;9.60;99.90;;;;;;5002302;28;20403;-65
2022/03/19 03:52:12;;;;;;;5.85;3.63;;;9.60;99.90;;;;;;5018389;28;20484;-65
2022/03/19 03:54:40;;;;;;;7.70;3.25;;;9.60;99.90;;;;;;5018173;28;20121;-65
2022/03/19 03:57:07;;;;;;;8.38;4.40;;;9.60;99.90;;;;;;5018230;28;20045;-65
2022/03/19 03:59:35;;;;;;;10.32;3.45;;;9.50;99.90;;;;;;5035569;28;20056;-65
2022/03/19 04:02:02;;;;;;;8.93;4.97;;;9.50;99.90;;;;;;5002116;28;20144;-65
2022/03/19 04:04:30;;;;;;;8.13;4.95;;;9.50;99.90;;;;;;5018146;28;20042;-65
2022/03/19 04:06:57;;;;;;;8.45;3.55;;;9.50;99.90;;;;;;5018009;28;20045;-65
2022/03/19 04:09:25;;;;;;;11.52;5.20;;;9.40;99.90;;;;;;5035572;28;20045;-64
2022/03/19 04:11:52;;;;;;;11.32;4.13;;;9.40;99.90;;;;;;5017618;28;20060;-64
2022/03/19 04:14:20;;;;;;;6.75;4.38;;;9.50;99.90;;;;;;5035298;28;20052;-64
2022/03/19 04:16:47;;;;;;;6.25;3.78;;;9.50;99.90;;;;;;5035301;28;20051;-64
2022/03/19 04:19:15;;;;;;;10.82;3.97;;;9.40;99.90;;;;;;5035638;28;20041;-64
2022/03/19 04:21:43;;;;;;;7.45;3.70;;;9.50;99.90;;;;;;5035679;28;20038;-64
2022/03/19 04:24:10;;;;;;;9.63;4.38;;;9.40;99.90;;;;;;5017635;28;20499;-64
2022/03/19 04:26:38;;;;;;;10.30;4.60;;;9.40;99.90;;;;;;5017701;28;20483;-64
2022/03/19 04:29:05;;;;;;;8.98;5.32;;;9.40;99.90;;;;;;5017604;28;20045;-64
2022/03/19 04:31:33;;;;;;;6.07;3.42;;;9.40;99.90;;;;;;5017612;28;20050;-64
2022/03/19 04:34:00;;;;;;;7.22;4.75;;;9.40;99.90;;;;;;4985321;28;20076;-64
2022/03/19 04:36:30;;;;;;;7.22;3.90;;;9.40;99.90;;;;;;5035099;28;20124;-64
2022/03/19 04:39:03;;;;;;;5.43;3.53;;;9.40;99.90;;;;;;5017585;28;20041;-64
2022/03/19 04:41:32;;;;;;;7.20;4.50;;;9.40;99.90;;;;;;5001063;28;20132;-64
2022/03/19 04:44:00;;;;;;;10.55;4.47;;;9.40;99.90;;;;;;5017354;28;20133;-65
2022/03/19 04:46:28;;;;;;;10.60;4.93;;;9.40;99.90;;;;;;5017160;28;20120;-64
2022/03/19 04:48:56;;;;;;;8.75;5.50;;;9.30;99.90;;;;;;5017492;28;20123;-64
2022/03/19 04:51:30;;;;;;;6.57;3.97;;;9.40;99.90;;;;;;5034713;28;20041;-64
2022/03/19 04:53:59;;;;;;;7.45;4.15;;;9.40;99.90;;;;;;5000955;28;20557;-64
2022/03/19 04:56:28;;;;;;;6.45;4.03;;;9.40;99.90;;;;;;5017019;28;20080;-64
2022/03/19 04:58:58;;;;;;;9.60;4.95;;;9.40;99.90;;;;;;5017070;28;20048;-66
2022/03/19 05:01:27;;;;;;;10.80;4.72;;;9.40;99.90;;;;;;5000445;28;20049;-64
2022/03/19 05:03:56;;;;;;;8.65;4.10;;;9.40;99.90;;;;;;5000542;28;20404;-64
2022/03/19 05:06:24;;;;;;;5.43;4.13;;;9.40;99.90;;;;;;5034413;28;20049;-65
2022/03/19 05:11:12;;;;;;;9.15;5.05;;;9.40;99.90;;;;;;5017035;28;20046;-64
2022/03/19 05:11:39;;;;;;;11.05;6.97;;;9.40;99.90;;;;;;5034278;28;20046;-64
2022/03/19 05:14:09;;;;;;;8.05;5.15;;;9.50;99.90;;;;;;5034414;28;20535;-64
2022/03/19 05:16:37;;;;;;;7.78;4.70;;;9.60;99.90;;;;;;5034225;28;20094;-64
2022/03/19 05:19:05;;;;;;;12.70;5.47;;;9.60;99.90;;;;;;5016537;28;20538;-64
2022/03/19 05:21:32;;;;;;;8.35;4.28;;;9.70;99.90;;;;;;5016387;28;20423;-64
2022/03/19 05:24:00;;;;;;;7.85;4.63;;;9.60;99.90;;;;;;5015869;28;20077;-64
2022/03/19 05:26:28;;;;;;;8.95;4.72;;;9.60;99.90;;;;;;5000305;28;20183;-64
2022/03/19 05:28:55;;;;;;;10.52;4.50;;;9.60;99.90;;;;;;5016540;28;20047;-64
2022/03/19 05:31:32;;;;;;;6.07;4.57;;;9.60;99.90;;;;;;5016357;28;20052;-64
2022/03/19 05:36:47;;;;;;;8.43;4.47;;;9.70;99.90;;;;;;5034196;28;20091;-64
2022/03/19 05:39:14;;;;;;;6.32;4.28;;;9.70;99.90;;;;;;5016510;28;20050;-64
2022/03/19 05:41:42;;;;;;;9.13;3.92;;;9.60;99.90;;;;;;5033779;28;20518;-64
2022/03/19 05:44:09;;;;;;;5.78;4.35;;;9.70;99.90;;;;;;4999876;28;20452;-64
2022/03/19 05:46:37;;;;;;;7.32;3.90;;;9.70;99.90;;;;;;5012397;28;20053;-65
2022/03/19 05:49:05;;;;;;;8.00;4.45;;;9.70;99.90;;;;;;5022566;28;20053;-65
2022/03/19 05:51:32;;;;;;;9.45;4.75;;;9.80;99.90;;;;;;5032096;28;20054;-64
2022/03/19 05:54:00;;;;;;;6.82;4.38;;;9.80;99.90;;;;;;4994544;28;20052;-65
2022/03/19 05:56:29;;;;;;;10.77;5.30;;;9.90;99.90;;;;;;5014997;28;20046;-65
2022/03/19 05:58:57;;;;;;;8.68;4.68;;;9.80;99.90;;;;;;5034333;28;20120;-65
2022/03/19 06:01:28;;;;;;;8.55;4.65;;;9.80;99.90;;;;;;5016542;28;20061;-65
2022/03/19 06:03:59;;;;;;;10.02;5.32;;;9.80;99.90;;;;;;5025091;28;20124;-65
2022/03/19 06:06:28;;;;;;;7.82;4.30;;;9.80;99.90;;;;;;5014126;28;20033;-64
2022/03/19 06:08:56;;;;;;;11.00;5.05;;;9.90;99.90;;;;;;5005079;28;20074;-65
2022/03/19 06:11:24;;;;;;;9.85;4.72;;;9.90;99.40;;;;;;5023336;28;20041;-65
2022/03/19 06:13:52;;;;;;;9.48;4.13;;;9.90;99.20;;;;;;5013824;28;20206;-65
2022/03/19 06:16:20;;;;;;;9.98;5.43;;;9.90;99.00;;;;;;5014519;28;20160;-65
2022/03/19 06:18:50;;;;;;;14.00;6.90;;;10.00;99.00;;;;;;5008113;28;20517;-65
2022/03/19 06:21:20;;;;;;;15.00;7.85;;;10.00;98.70;;;;;;5043050;28;20041;-65
2022/03/19 06:23:47;;;;;;;8.77;4.70;;;10.00;98.80;;;;;;5013810;28;20038;-65
2022/03/19 06:26:16;;;;;;;9.23;5.03;;;10.10;98.80;;;;;;4998255;28;20052;-64
2022/03/19 06:28:44;;;;;;;6.10;4.53;;;10.10;98.60;;;;;;4997411;28;20053;-65
2022/03/19 06:31:11;;;;;;;9.07;3.75;;;10.10;98.50;;;;;;5021616;28;20499;-64
2022/03/19 06:33:43;;;;;;;10.52;5.25;;;10.20;98.50;;;;;;5017657;28;20056;-65
2022/03/19 06:38:58;;;;;;;8.45;3.63;;;10.40;98.50;;;;;;4999597;28;20049;-64
2022/03/19 06:41:26;;;;;;;6.75;4.03;;;10.50;98.30;;;;;;4999709;28;20046;-64
2022/03/19 06:43:54;;;;;;;8.80;4.35;;;10.50;98.10;;;;;;5000182;28;20495;-64
2022/03/19 06:46:21;;;;;;;12.20;4.97;;;10.50;98.00;;;;;;4999917;28;20088;-65
2022/03/19 06:48:50;;;;;;;6.38;4.38;;;10.60;97.90;;;;;;4999774;28;20507;-64
2022/03/19 06:51:19;;;;;;;7.43;3.95;;;10.60;98.00;;;;;;5000063;28;20065;-64
2022/03/19 06:53:49;;;;;;;17.75;11.43;;;10.70;98.20;;;;;;4983205;28;20042;-65
2022/03/19 06:56:17;;;;;;;15.57;9.68;;;10.70;98.30;;;;;;4999746;28;20052;-65
2022/03/19 06:58:46;;;;;;;12.63;5.90;;;10.70;98.00;;;;;;4999564;28;20053;-65
2022/03/19 07:01:16;;;;;;;9.88;4.45;;;10.60;98.10;;;;;;4999658;28;20080;-65
2022/03/19 07:03:45;;;;;;;8.77;4.97;;;10.70;98.00;;;;;;4999255;28;20085;-65
2022/03/19 07:06:15;;;;;;;7.18;4.25;;;10.70;98.00;;;;;;4999247;28;20040;-65
2022/03/19 07:09:04;;;;;;;8.30;4.28;;;10.70;98.00;;;;;;4999497;28;20042;-64
2022/03/19 07:11:32;;;;;;;10.48;4.40;;;10.80;98.10;;;;;;4999485;28;20124;-64
2022/03/19 07:14:01;;;;;;;7.18;4.65;;;10.80;98.10;;;;;;4982878;28;20136;-64
2022/03/19 07:16:32;;;;;;;8.57;4.28;;;10.90;98.00;;;;;;4998709;28;20045;-64
2022/03/19 07:19:00;;;;;;;7.00;4.63;;;10.90;98.00;;;;;;4982544;28;20046;-64
2022/03/19 07:21:28;;;;;;;5.43;3.70;;;11.00;98.10;;;;;;4999080;28;20038;-64
2022/03/19 07:23:56;;;;;;;9.23;4.43;;;11.00;97.90;;;;;;4999124;28;20046;-65
2022/03/19 07:26:26;;;;;;;8.25;4.70;;;11.10;97.60;;;;;;4982879;28;20074;-65
2022/03/19 07:28:54;;;;;;;8.20;4.60;;;11.00;97.30;;;;;;4983221;28;20045;-65
2022/03/19 07:31:22;;;;;;;7.13;6.43;;;10.90;97.60;;;;;;4998738;28;20443;-65
2022/03/19 07:33:50;;;;;;;6.03;4.70;;;10.90;97.70;;;;;;5016500;28;20056;-65
2022/03/19 07:36:19;;;;;;;6.22;4.97;;;10.90;97.70;;;;;;4999291;28;20049;-65
2022/03/19 07:38:47;;;;;;;8.00;4.88;;;10.80;97.40;;;;;;4999069;28;20152;-65
2022/03/19 07:44:01;;;;;;;8.15;5.03;;;10.70;97.60;;;;;;4998868;28;20042;-65
2022/03/19 07:46:28;;;;;;;8.32;5.18;;;10.70;97.70;;;;;;4998286;28;20384;-65
2022/03/19 07:48:56;;;;;;;9.15;5.55;;;10.70;97.80;;;;;;4982932;28;20411;-65
2022/03/19 07:51:24;;;;;;;7.78;4.10;;;10.70;97.80;;;;;;4982575;28;20391;-65
2022/03/19 07:53:52;;;;;;;7.85;4.50;;;10.80;98.00;;;;;;4998448;28;20038;-65
2022/03/19 07:56:20;;;;;;;7.30;3.85;;;10.70;97.00;;;;;;4998668;28;20432;-65
2022/03/19 07:58:50;;;;;;;6.53;3.58;;;10.80;97.50;;;;;;4982744;28;20396;-65
2022/03/19 08:01:19;;;;;;;6.78;5.13;;;10.90;97.90;;;;;;5016340;28;20104;-65
2022/03/19 08:03:47;;;;;;;9.30;7.03;;;11.00;97.70;;;;;;4982210;28;20088;-65
2022/03/19 08:06:15;;;;;;;9.70;5.93;;;11.00;97.60;;;;;;4998646;28;20134;-65
2022/03/19 08:08:43;;;;;;;9.57;4.82;;;11.00;96.50;;;;;;4998395;28;20057;-65
2022/03/19 08:11:10;;;;;;;5.72;3.85;;;11.00;96.30;;;;;;4998384;28;20505;-64
2022/03/19 08:13:39;;;;;;;5.35;3.47;;;11.10;96.40;;;;;;4998097;28;20048;-65
2022/03/19 08:16:08;;;;;;;10.00;3.72;;;11.10;96.30;;;;;;4998188;28;20046;-65
2022/03/19 08:18:37;;;;;;;6.38;3.80;;;11.20;95.90;;;;;;4998059;28;20062;-65
2022/03/19 08:21:05;;;;;;;5.93;3.50;;;11.30;95.50;;;;;;4981881;28;20514;-65
2022/03/19 08:23:34;;;;;;;5.85;3.97;;;11.30;95.20;;;;;;4998003;28;20385;-65
2022/03/19 08:26:02;;;;;;;5.38;3.47;;;11.30;95.20;;;;;;4998140;28;20112;-65
2022/03/19 08:28:29;;;;;;;5.10;3.40;;;11.40;94.70;;;;;;4998312;28;20072;-65
2022/03/19 08:30:58;;;;;;;7.72;4.22;;;11.30;94.50;;;;;;4998194;28;20052;-65
2022/03/19 08:33:26;;;;;;;4.78;3.13;;;11.30;94.90;;;;;;4998059;28;20048;-65
2022/03/19 08:35:54;;;;;;;4.07;3.38;;;11.40;94.90;;;;;;4981565;28;20050;-65
2022/03/19 08:41:08;;;;;;;5.60;3.50;;;11.30;94.30;;;;;;5015330;28;20511;-65
2022/03/19 08:43:36;;;;;;;4.75;3.53;;;11.30;94.60;;;;;;4981977;28;20050;-65
2022/03/19 08:46:05;;;;;;;7.72;3.38;;;11.40;94.60;;;;;;4997671;28;20512;-66
2022/03/19 08:48:33;;;;;;;6.78;3.70;;;11.40;94.30;;;;;;5015175;28;20400;-66
2022/03/19 08:51:39;;;;;;;6.72;3.72;;;11.40;94.40;;;;;;4997195;28;20050;-66
2022/03/19 08:53:49;;;;;;;4.80;3.80;;;11.40;94.50;;;;;;5015115;28;20097;-66
2022/03/19 08:56:17;;;;;;;5.85;3.83;;;11.40;94.60;;;;;;4997293;28;20042;-66
2022/03/19 08:58:45;;;;;;;4.13;2.90;;;11.40;94.10;;;;;;4981055;28;20141;-65
2022/03/19 09:01:13;;;;;;;6.65;4.55;;;11.40;93.80;;;;;;4997596;28;20042;-66
2022/03/19 09:03:41;;;;;;;5.85;4.03;;;11.40;94.00;;;;;;4997642;28;20053;-66
2022/03/19 09:06:13;;;;;;;5.05;3.00;;;11.50;94.00;;;;;;5015027;28;20045;-66
2022/03/19 09:08:42;;;;;;;4.57;2.63;;;11.40;93.50;;;;;;5014914;28;20053;-65
2022/03/19 09:11:10;;;;;;;9.48;3.42;;;11.40;93.40;;;;;;4997328;28;20046;-66
2022/03/19 09:13:37;;;;;;;8.00;4.90;;;11.20;93.10;;;;;;4996995;28;20173;-66
2022/03/19 09:16:06;;;;;;;7.90;5.13;;;11.20;93.00;;;;;;4980967;28;20116;-66
2022/03/19 09:18:33;;;;;;;6.55;3.85;;;11.30;93.70;;;;;;5002778;28;20054;-66
2022/03/19 09:21:01;;;;;;;6.75;4.28;;;11.40;93.00;;;;;;5033447;28;20083;-66
2022/03/19 09:23:29;;;;;;;6.63;3.60;;;11.40;93.00;;;;;;5018387;28;20049;-66
2022/03/19 09:25:56;;;;;;;7.25;3.58;;;11.40;93.30;;;;;;5008587;28;20039;-66
2022/03/19 09:28:24;;;;;;;5.88;3.97;;;11.40;93.50;;;;;;5006339;28;20126;-66
2022/03/19 09:30:52;;;;;;;6.15;3.50;;;11.40;93.20;;;;;;5015436;28;20041;-65
2022/03/19 09:33:20;;;;;;;9.18;3.65;;;11.50;93.40;;;;;;5000291;28;20136;-65
2022/03/19 09:35:48;;;;;;;5.50;3.72;;;11.50;92.90;;;;;;5000298;28;20077;-65
2022/03/19 09:38:17;;;;;;;6.85;4.07;;;11.60;92.90;;;;;;5016754;28;20053;-65
2022/03/19 09:40:45;;;;;;;4.82;3.38;;;11.70;92.80;;;;;;5033799;28;20555;-65
2022/03/19 09:43:13;;;;;;;7.63;3.83;;;11.80;92.70;;;;;;5016286;28;20143;-65
2022/03/19 09:45:40;;;;;;;12.23;3.60;;;12.10;92.50;;;;;;5016122;28;20033;-65
2022/03/19 09:48:08;;;;;;;6.57;4.40;;;12.20;91.40;;;;;;5016353;28;20041;-65
2022/03/19 09:50:36;;;;;;;8.45;4.63;;;12.30;91.60;;;;;;5016210;28;20376;-65
2022/03/19 09:53:04;;;;;;;8.00;4.82;;;12.30;91.30;;;;;;5016141;28;20075;-65
2022/03/19 09:55:36;;;;;;;8.00;4.57;;;12.30;91.40;;;;;;5032528;28;20056;-65
2022/03/19 09:58:04;;;;;;;8.43;3.85;;;12.30;91.40;;;;;;5016127;28;20048;-65
2022/03/19 10:00:32;;;;;;;10.35;4.20;;;12.40;91.10;;;;;;4999570;28;20042;-65
2022/03/19 10:03:02;;;;;;;6.28;3.60;;;12.60;91.20;;;;;;5016481;28;20128;-65
2022/03/19 10:08:36;;;;;;;5.05;3.47;;;12.80;91.00;;;;;;5033576;28;20431;-65
2022/03/19 10:11:09;;;;;;;8.38;4.03;;;12.80;90.40;;;;;;4999992;28;20053;-65
2022/03/19 10:13:44;;;;;;;8.13;3.28;;;12.70;89.40;;;;;;5032430;28;20068;-65
2022/03/19 10:16:19;;;;;;;8.07;3.50;;;12.80;89.60;;;;;;5019373;28;20040;-65
2022/03/19 10:19:09;;;;;;;6.20;3.55;;;13.00;89.60;;;;;;5014213;28;20046;-65
2022/03/19 10:21:41;;;;;;;7.38;4.18;;;13.00;89.30;;;;;;5019116;28;20049;-65
2022/03/19 10:24:24;;;;;;;6.20;4.13;;;13.00;89.50;;;;;;5020105;28;20049;-65
2022/03/19 10:26:53;;;;;;;6.60;2.80;;;12.70;89.80;;;;;;5016201;28;20045;-65
2022/03/19 10:29:33;;;;;;;4.65;2.65;;;12.70;90.00;;;;;;5033610;28;20084;-65
2022/03/19 10:32:03;;;;;;;3.88;2.80;;;12.80;90.10;;;;;;5031717;28;20049;-65
2022/03/19 10:34:33;;;;;;;6.13;3.50;;;12.90;90.10;;;;;;5019814;28;20419;-66
2022/03/19 10:37:01;;;;;;;4.35;2.85;;;13.00;89.90;;;;;;5027386;28;20052;-66
2022/03/19 10:39:29;;;;;;;4.78;3.03;;;13.20;89.70;;;;;;5022068;28;20578;-66
2022/03/19 10:41:58;;;;;;;4.88;3.22;;;13.50;89.80;;;;;;5017202;28;20038;-66
2022/03/19 10:44:28;;;;;;;7.88;3.20;;;13.70;88.00;;;;;;5023051;28;20041;-66
2022/03/19 10:46:58;;;;;;;3.95;2.88;;;14.00;87.80;;;;;;5027317;28;20061;-65
2022/03/19 10:49:30;;;;;;;4.53;2.85;;;14.20;87.60;;;;;;5015999;28;20041;-66
2022/03/19 10:52:01;;;;;;;5.65;3.45;;;14.40;87.20;;;;;;5020329;28;20041;-66
2022/03/19 10:54:30;;;;;;;4.97;2.95;;;14.50;87.30;;;;;;5033118;28;20116;-65
2022/03/19 10:56:58;;;;;;;6.97;3.88;;;14.60;87.00;;;;;;5015590;28;20132;-65
2022/03/19 10:59:30;;;;;;;8.80;4.55;;;14.60;86.60;;;;;;5015525;28;20463;-65
2022/03/19 11:02:00;;;;;;;6.68;3.88;;;14.30;86.50;;;;;;4999031;28;20081;-65
2022/03/19 11:04:30;;;;;;;5.80;4.25;;;14.10;87.00;;;;;;5001792;28;20041;-65
2022/03/19 11:06:59;;;;;;;6.95;3.67;;;13.60;87.60;;;;;;5020371;28;20518;-65
2022/03/19 11:09:29;;;;;;;11.80;10.60;;;13.50;88.00;;;;;;4998972;28;20397;-65
2022/03/19 11:12:03;;;;;;;5.25;4.63;;;13.50;88.80;;;;;;5032181;28;20060;-65
2022/03/19 11:14:31;;;;;;;7.35;5.05;;;13.50;89.00;;;;;;5033019;28;20044;-66
2022/03/19 11:17:23;;;;;;;7.60;6.03;;;13.70;89.70;;;;;;5015387;28;20135;-66
2022/03/19 11:20:02;;;;;;;12.30;4.70;;;13.80;89.40;;;;;;5032922;28;20045;-66
2022/03/19 11:22:39;;;;;;;10.40;3.80;;;13.90;89.20;;;;;;5001634;28;20108;-66
2022/03/19 11:25:26;;;;;;;5.57;4.38;;;14.00;89.50;;;;;;5019115;28;20400;-66
2022/03/19 11:28:10;;;;;;;8.43;3.75;;;14.10;88.80;;;;;;4983232;28;20042;-66
2022/03/19 11:30:45;;;;;;;5.00;3.45;;;14.20;88.10;;;;;;5031333;28;20045;-65
2022/03/19 11:33:19;;;;;;;4.93;3.25;;;14.30;89.00;;;;;;5029411;28;20076;-65
2022/03/19 11:35:59;;;;;;;7.35;3.72;;;14.30;88.90;;;;;;5035060;28;20049;-66
2022/03/19 11:38:28;;;;;;;4.38;2.97;;;14.50;88.80;;;;;;5036215;28;20455;-66
2022/03/19 11:40:57;;;;;;;6.38;3.67;;;14.50;88.90;;;;;;5018265;28;20045;-66
2022/03/19 11:43:24;;;;;;;8.25;5.65;;;14.50;87.20;;;;;;5002449;28;20053;-66
2022/03/19 11:46:07;;;;;;;6.90;4.55;;;14.50;87.40;;;;;;4986078;28;20096;-66
2022/03/19 11:48:43;;;;;;;5.22;4.35;;;14.30;86.80;;;;;;5018329;28;20053;-66
2022/03/19 11:51:34;;;;;;;8.55;4.22;;;14.20;87.30;;;;;;5035889;28;20049;-66
2022/03/19 11:54:16;;;;;;;6.32;4.88;;;14.20;87.80;;;;;;5002248;28;20510;-66
2022/03/19 11:56:47;;;;;;;8.02;3.80;;;14.10;87.70;;;;;;5035813;28;20049;-66
2022/03/19 11:59:24;;;;;;;8.20;3.50;;;14.10;88.30;;;;;;5036159;28;20132;-66
2022/03/19 12:01:55;;;;;;;8.35;4.60;;;14.00;88.80;;;;;;5035629;28;20499;-66
2022/03/19 12:04:39;;;;;;;6.25;4.18;;;13.90;87.30;;;;;;5001795;28;20041;-66
2022/03/19 12:07:07;;;;;;;6.75;4.22;;;13.90;87.30;;;;;;5018410;28;20495;-66
2022/03/19 12:09:39;;;;;;;6.72;3.83;;;13.90;87.80;;;;;;5018350;28;20052;-67
2022/03/19 12:12:15;;;;;;;7.72;4.45;;;13.90;88.80;;;;;;5033572;28;20049;-67
2022/03/19 12:14:46;;;;;;;7.38;5.53;;;13.90;89.00;;;;;;5033765;28;20045;-67
2022/03/19 12:17:40;;;;;;;7.95;5.00;;;13.90;88.70;;;;;;5034098;28;20221;-67
2022/03/19 12:20:09;;;;;;;8.45;4.35;;;13.80;88.10;;;;;;5020223;28;20088;-67
2022/03/19 12:22:39;;;;;;;5.93;3.92;;;13.80;88.30;;;;;;5035371;28;20046;-66
2022/03/19 12:25:23;;;;;;;8.73;4.13;;;13.70;88.30;;;;;;5001504;28;20092;-67
2022/03/19 12:27:56;;;;;;;5.30;3.75;;;13.60;88.50;;;;;;5033646;28;20068;-66
2022/03/19 12:30:25;;;;;;;5.20;3.90;;;13.60;88.30;;;;;;5034164;28;20053;-66
2022/03/19 12:32:55;;;;;;;8.20;3.75;;;13.50;88.20;;;;;;5005544;28;20510;-66
2022/03/19 12:35:24;;;;;;;5.45;3.60;;;13.50;88.70;;;;;;5034296;28;20042;-66
2022/03/19 12:37:54;;;;;;;6.40;4.55;;;13.50;88.20;;;;;;5001616;28;20057;-66
2022/03/19 12:40:25;;;;;;;6.90;4.53;;;13.40;88.80;;;;;;5017506;28;20044;-67
2022/03/19 12:42:58;;;;;;;5.68;3.92;;;13.20;88.70;;;;;;5001414;28;20084;-67
2022/03/19 12:45:39;;;;;;;7.38;4.47;;;13.10;90.40;;;;;;5017993;28;20079;-66
2022/03/19 12:48:11;;;;;;;9.20;5.18;;;13.10;91.30;;;;;;5033893;28;20435;-66
2022/03/19 12:50:39;;;;;;;7.03;4.40;;;13.10;91.60;;;;;;5033473;28;20466;-66
2022/03/19 12:53:08;;;;;;;6.43;4.63;;;13.10;91.60;;;;;;5021244;28;20044;-66
2022/03/19 12:55:36;;;;;;;7.95;4.70;;;13.10;91.80;;;;;;5016918;28;20037;-67
2022/03/19 12:58:04;;;;;;;7.13;3.70;;;13.10;92.20;;;;;;5016828;28;20060;-66
2022/03/19 13:00:32;;;;;;;6.55;3.75;;;12.90;92.60;;;;;;5000602;28;20045;-66
2022/03/19 13:03:00;;;;;;;5.85;4.38;;;12.80;92.70;;;;;;5016923;28;20046;-66
2022/03/19 13:05:27;;;;;;;6.95;5.30;;;12.80;92.70;;;;;;5000812;28;20057;-66
2022/03/19 13:08:07;;;;;;;15.63;11.55;;;12.80;92.70;;;;;;5020778;28;20573;-66
2022/03/19 13:10:46;;;;;;;10.77;6.38;;;12.80;92.90;;;;;;5018126;28;20079;-66
2022/03/19 13:13:15;;;;;;;7.80;4.93;;;12.80;92.70;;;;;;5034538;28;20049;-66
2022/03/19 13:15:52;;;;;;;6.97;3.97;;;12.90;92.90;;;;;;5033100;28;20046;-66
2022/03/19 13:18:27;;;;;;;4.68;3.65;;;12.90;92.70;;;;;;5013362;28;20115;-67